createdAt,value
2022-08-22T00:00:31.939Z,68.18
2022-08-22T00:01:31.954Z,68.18
2022-08-22T00:02:31.932Z,68.28
2022-08-22T00:02:43.020Z,65.21
2022-08-22T00:02:47.892Z,61.48
2022-08-22T00:02:49.935Z,65.50
2022-08-22T00:02:55.559Z,67.35
2022-08-22T00:02:59.130Z,66.31
2022-08-22T00:03:08.632Z,65.48
2022-08-22T00:03:10.898Z,66.44
2022-08-22T00:03:31.926Z,68.68
2022-08-22T00:04:34.377Z,68.88
2022-08-22T00:05:31.911Z,69.18
2022-08-22T00:06:31.880Z,69.18
2022-08-22T00:07:31.865Z,68.68
2022-08-22T00:08:31.855Z,69.12
2022-08-22T00:09:31.837Z,69.22
2022-08-22T00:10:31.855Z,68.71
2022-08-22T00:11:31.827Z,68.71
2022-08-22T00:12:31.817Z,68.82
2022-08-22T00:13:31.807Z,68.91
2022-08-22T00:14:31.787Z,69.22
2022-08-22T00:15:42.979Z,69.12
2022-08-22T00:16:32.780Z,69.02
2022-08-22T00:17:31.759Z,69.92
2022-08-22T00:18:31.756Z,70.23
2022-08-22T00:19:31.791Z,70.12
2022-08-22T00:20:31.758Z,70.43
2022-08-22T00:21:31.786Z,69.92
2022-08-22T00:22:31.732Z,70.23
2022-08-22T00:23:31.737Z,70.53
2022-08-22T00:24:31.718Z,70.32
2022-08-22T00:25:31.701Z,70.53
2022-08-22T00:26:31.691Z,69.92
2022-08-22T00:27:31.660Z,70.12
2022-08-22T00:28:31.654Z,70.23
2022-08-22T00:29:31.662Z,70.03
2022-08-22T00:30:31.645Z,70.32
2022-08-22T00:31:31.636Z,70.23
2022-08-22T00:32:31.630Z,70.43
2022-08-22T00:33:31.613Z,70.32
2022-08-22T00:34:31.595Z,70.43
2022-08-22T00:35:31.604Z,70.56
2022-08-22T00:36:31.602Z,70.96
2022-08-22T00:37:31.576Z,71.06
2022-08-22T00:38:31.554Z,71.06
2022-08-22T00:39:31.546Z,71.47
2022-08-22T00:40:31.556Z,71.36
2022-08-22T00:41:31.524Z,71.36
2022-08-22T00:42:32.247Z,71.47
2022-08-22T00:43:31.499Z,71.16
2022-08-22T00:44:31.492Z,71.26
2022-08-22T00:45:31.507Z,71.56
2022-08-22T00:46:31.467Z,71.20
2022-08-22T00:47:31.478Z,71.50
2022-08-22T00:48:31.475Z,71.60
2022-08-22T00:49:31.475Z,71.70
2022-08-22T00:50:31.426Z,72.20
2022-08-22T00:51:31.441Z,72.31
2022-08-22T00:52:31.408Z,71.91
2022-08-22T00:53:31.422Z,72.31
2022-08-22T00:54:31.401Z,72.11
2022-08-22T00:55:34.969Z,72.00
2022-08-22T00:56:31.360Z,71.80
2022-08-22T00:57:31.372Z,72.51
2022-08-22T00:58:31.347Z,72.31
2022-08-22T00:59:31.349Z,72.31
2022-08-22T01:00:35.263Z,72.41
2022-08-22T01:01:32.403Z,72.61
2022-08-22T01:02:31.291Z,73.21
2022-08-22T01:03:31.291Z,72.41
2022-08-22T01:04:31.308Z,72.51
2022-08-22T01:05:31.280Z,72.41
2022-08-22T01:06:31.262Z,72.31
2022-08-22T01:07:38.111Z,72.20
2022-08-22T01:08:32.251Z,72.31
2022-08-22T01:09:31.269Z,72.81
2022-08-22T01:10:31.256Z,73.41
2022-08-22T01:11:31.216Z,73.82
2022-08-22T01:12:31.224Z,73.72
2022-08-22T01:13:31.213Z,73.82
2022-08-22T01:14:34.645Z,73.32
2022-08-22T01:15:31.174Z,72.81
2022-08-22T01:16:31.156Z,72.91
2022-08-22T01:17:31.178Z,73.21
2022-08-22T01:18:31.175Z,73.92
2022-08-22T01:19:31.159Z,74.02
2022-08-22T01:20:31.127Z,73.41
2022-08-22T01:21:31.115Z,74.02
2022-08-22T01:22:31.111Z,73.32
2022-08-22T01:23:31.095Z,73.01
2022-08-22T01:24:31.092Z,73.01
2022-08-22T01:25:31.077Z,74.02
2022-08-22T01:26:31.057Z,73.72
2022-08-22T01:27:31.051Z,73.21
2022-08-22T01:28:31.075Z,73.32
2022-08-22T01:29:31.027Z,73.61
2022-08-22T01:30:31.019Z,73.61
2022-08-22T01:31:31.031Z,73.82
2022-08-22T01:32:31.004Z,73.72
2022-08-22T01:33:31.008Z,73.92
2022-08-22T01:34:30.990Z,73.52
2022-08-22T01:35:30.967Z,73.72
2022-08-22T01:36:30.958Z,73.11
2022-08-22T01:37:30.965Z,73.11
2022-08-22T01:38:30.948Z,73.61
2022-08-22T01:39:30.929Z,73.11
2022-08-22T01:40:30.920Z,73.11
2022-08-22T01:41:30.899Z,73.32
2022-08-22T01:42:30.894Z,73.52
2022-08-22T01:43:58.870Z,73.52
2022-08-22T01:44:31.871Z,73.21
2022-08-22T01:45:30.883Z,73.32
2022-08-22T01:46:30.852Z,73.82
2022-08-22T01:47:30.966Z,74.32
2022-08-22T01:48:32.042Z,74.42
2022-08-22T01:49:30.838Z,73.52
2022-08-22T01:50:30.814Z,74.02
2022-08-22T01:51:30.816Z,74.02
2022-08-22T01:52:30.815Z,74.22
2022-08-22T01:53:30.787Z,74.42
2022-08-22T01:54:30.772Z,74.42
2022-08-22T01:55:30.760Z,74.32
2022-08-22T01:56:30.779Z,74.22
2022-08-22T01:57:30.759Z,74.32
2022-08-22T01:58:30.736Z,73.75
2022-08-22T01:59:34.105Z,74.26
2022-08-22T02:00:35.112Z,74.15
2022-08-22T02:01:31.698Z,74.26
2022-08-22T02:02:30.701Z,74.35
2022-08-22T02:03:30.678Z,73.95
2022-08-22T02:04:30.672Z,73.95
2022-08-22T02:05:30.664Z,73.95
2022-08-22T02:06:30.655Z,74.35
2022-08-22T02:07:31.726Z,74.66
2022-08-22T02:08:30.621Z,74.66
2022-08-22T02:09:30.626Z,73.95
2022-08-22T02:10:30.611Z,74.15
2022-08-22T02:11:30.592Z,74.15
2022-08-22T02:12:30.589Z,74.05
2022-08-22T02:13:30.598Z,74.46
2022-08-22T02:14:30.563Z,74.55
2022-08-22T02:15:30.555Z,75.16
2022-08-22T02:16:30.572Z,74.96
2022-08-22T02:17:30.557Z,75.46
2022-08-22T02:18:30.512Z,75.16
2022-08-22T02:19:30.511Z,75.36
2022-08-22T02:20:30.505Z,75.46
2022-08-22T02:21:30.486Z,75.67
2022-08-22T02:22:30.495Z,75.46
2022-08-22T02:23:30.467Z,75.67
2022-08-22T02:24:30.468Z,75.56
2022-08-22T02:25:30.440Z,75.26
2022-08-22T02:26:30.456Z,75.36
2022-08-22T02:27:31.604Z,75.67
2022-08-22T02:28:30.412Z,75.76
2022-08-22T02:29:30.407Z,75.56
2022-08-22T02:30:30.421Z,75.46
2022-08-22T02:31:30.393Z,75.36
2022-08-22T02:32:30.405Z,75.36
2022-08-22T02:33:30.374Z,75.87
2022-08-22T02:34:30.354Z,75.76
2022-08-22T02:35:30.402Z,75.96
2022-08-22T02:36:30.340Z,75.76
2022-08-22T02:37:30.334Z,75.96
2022-08-22T02:38:30.322Z,75.76
2022-08-22T02:39:30.295Z,75.87
2022-08-22T02:40:30.314Z,76.17
2022-08-22T02:41:31.022Z,76.47
2022-08-22T02:42:30.278Z,76.47
2022-08-22T02:43:30.266Z,76.37
2022-08-22T02:44:30.254Z,76.57
2022-08-22T02:45:30.256Z,76.67
2022-08-22T02:46:30.237Z,76.47
2022-08-22T02:47:30.227Z,76.47
2022-08-22T02:48:30.234Z,76.67
2022-08-22T02:49:30.236Z,76.17
2022-08-22T02:50:30.236Z,75.96
2022-08-22T02:51:30.187Z,76.17
2022-08-22T02:52:30.173Z,75.96
2022-08-22T02:53:30.157Z,76.17
2022-08-22T02:54:30.182Z,76.37
2022-08-22T02:55:30.168Z,76.37
2022-08-22T02:56:30.124Z,76.27
2022-08-22T02:57:30.129Z,75.96
2022-08-22T02:58:30.104Z,76.17
2022-08-22T02:59:30.102Z,76.17
2022-08-22T03:00:32.533Z,76.17
2022-08-22T03:01:30.087Z,76.97
2022-08-22T03:02:30.058Z,77.28
2022-08-22T03:03:30.061Z,76.77
2022-08-22T03:04:30.057Z,76.57
2022-08-22T03:05:30.082Z,76.47
2022-08-22T03:06:30.034Z,76.77
2022-08-22T03:07:30.027Z,76.67
2022-08-22T03:08:30.003Z,76.77
2022-08-22T03:09:30.003Z,76.23
2022-08-22T03:10:30.019Z,76.07
2022-08-22T03:11:29.990Z,75.83
2022-08-22T03:12:29.975Z,75.53
2022-08-22T03:13:29.957Z,75.53
2022-08-22T03:14:29.949Z,75.33
2022-08-22T03:15:29.959Z,75.43
2022-08-22T03:16:29.916Z,75.43
2022-08-22T03:17:29.923Z,75.63
2022-08-22T03:18:29.903Z,75.93
2022-08-22T03:19:29.909Z,76.54
2022-08-22T03:20:29.857Z,76.43
2022-08-22T03:21:29.921Z,76.34
2022-08-22T03:22:29.857Z,76.03
2022-08-22T03:23:29.812Z,75.73
2022-08-22T03:24:29.788Z,76.34
2022-08-22T03:25:29.780Z,76.34
2022-08-22T03:26:29.813Z,76.10
2022-08-22T03:27:32.157Z,76.43
2022-08-22T03:28:29.811Z,76.23
2022-08-22T03:29:29.761Z,76.34
2022-08-22T03:30:29.729Z,76.34
2022-08-22T03:31:29.772Z,76.34
2022-08-22T03:32:29.702Z,76.23
2022-08-22T03:33:29.712Z,76.64
2022-08-22T03:34:29.701Z,76.67
2022-08-22T03:35:29.670Z,76.87
2022-08-22T03:36:29.699Z,76.87
2022-08-22T03:37:29.652Z,76.87
2022-08-22T03:38:29.654Z,76.87
2022-08-22T03:39:29.663Z,76.77
2022-08-22T03:40:31.937Z,76.87
2022-08-22T03:41:29.614Z,77.17
2022-08-22T03:42:29.621Z,77.17
2022-08-22T03:43:29.613Z,77.28
2022-08-22T03:44:29.595Z,77.28
2022-08-22T03:45:29.571Z,77.28
2022-08-22T03:46:29.567Z,77.17
2022-08-22T03:47:29.556Z,77.51
2022-08-22T03:48:29.587Z,77.72
2022-08-22T03:49:29.550Z,77.72
2022-08-22T03:50:29.523Z,77.72
2022-08-22T03:51:29.529Z,77.92
2022-08-22T03:52:29.511Z,78.02
2022-08-22T03:53:29.556Z,78.02
2022-08-22T03:54:30.587Z,78.12
2022-08-22T03:55:29.458Z,78.32
2022-08-22T03:56:29.466Z,78.32
2022-08-22T03:57:29.446Z,78.12
2022-08-22T03:58:29.468Z,78.12
2022-08-22T03:59:29.466Z,78.52
2022-08-22T04:00:29.439Z,78.52
2022-08-22T04:01:29.401Z,78.42
2022-08-22T04:02:43.897Z,78.42
2022-08-22T04:03:30.383Z,78.52
2022-08-22T04:04:29.398Z,78.72
2022-08-22T04:05:29.374Z,78.72
2022-08-22T04:06:29.358Z,78.83
2022-08-22T04:07:32.068Z,79.03
2022-08-22T04:08:29.345Z,79.23
2022-08-22T04:09:29.348Z,79.03
2022-08-22T04:10:29.320Z,78.92
2022-08-22T04:11:29.321Z,78.83
2022-08-22T04:12:29.302Z,78.92
2022-08-22T04:13:29.321Z,79.13
2022-08-22T04:14:29.297Z,79.03
2022-08-22T04:15:29.262Z,78.92
2022-08-22T04:16:29.253Z,79.29
2022-08-22T04:17:29.256Z,79.09
2022-08-22T04:18:29.236Z,78.89
2022-08-22T04:19:29.248Z,78.89
2022-08-22T04:20:29.238Z,78.99
2022-08-22T04:21:29.237Z,78.89
2022-08-22T04:22:29.196Z,79.09
2022-08-22T04:23:29.198Z,78.79
2022-08-22T04:24:29.214Z,79.29
2022-08-22T04:25:29.164Z,79.19
2022-08-22T04:26:29.147Z,79.09
2022-08-22T04:27:29.137Z,79.09
2022-08-22T04:28:29.127Z,79.09
2022-08-22T04:29:29.126Z,78.49
2022-08-22T04:30:29.161Z,78.49
2022-08-22T04:31:29.098Z,78.89
2022-08-22T04:32:29.106Z,79.19
2022-08-22T04:33:29.077Z,78.89
2022-08-22T04:34:29.062Z,78.89
2022-08-22T04:35:29.077Z,78.69
2022-08-22T04:36:29.057Z,78.59
2022-08-22T04:37:29.057Z,78.59
2022-08-22T04:38:29.037Z,78.89
2022-08-22T04:39:29.049Z,78.79
2022-08-22T04:40:29.014Z,78.79
2022-08-22T04:41:28.998Z,79.19
2022-08-22T04:42:32.725Z,79.39
2022-08-22T04:43:28.988Z,78.99
2022-08-22T04:44:28.960Z,79.09
2022-08-22T04:45:28.951Z,79.09
2022-08-22T04:46:36.744Z,78.99
2022-08-22T04:47:29.948Z,79.19
2022-08-22T04:48:28.919Z,79.29
2022-08-22T04:49:28.919Z,79.29
2022-08-22T04:50:28.906Z,79.49
2022-08-22T04:51:28.885Z,79.49
2022-08-22T04:52:29.569Z,79.60
2022-08-22T04:53:28.871Z,79.39
2022-08-22T04:54:28.863Z,79.09
2022-08-22T04:55:28.878Z,78.89
2022-08-22T04:56:28.844Z,79.29
2022-08-22T04:57:28.830Z,78.89
2022-08-22T04:58:28.833Z,79.49
2022-08-22T04:59:28.823Z,78.69
2022-08-22T05:00:28.794Z,78.89
2022-08-22T05:01:28.823Z,78.39
2022-08-22T05:02:28.800Z,78.08
2022-08-22T05:03:28.792Z,78.35
2022-08-22T05:04:28.777Z,78.65
2022-08-22T05:05:28.754Z,77.95
2022-08-22T05:06:28.743Z,77.34
2022-08-22T05:07:28.733Z,77.34
2022-08-22T05:08:29.734Z,77.00
2022-08-22T05:09:28.795Z,77.04
2022-08-22T05:10:28.695Z,77.40
2022-08-22T05:11:28.693Z,77.20
2022-08-22T05:12:29.177Z,76.80
2022-08-22T05:13:28.670Z,76.56
2022-08-22T05:14:28.680Z,76.16
2022-08-22T05:15:28.657Z,76.76
2022-08-22T05:16:28.632Z,75.96
2022-08-22T05:17:28.628Z,75.52
2022-08-22T05:18:29.582Z,75.42
2022-08-22T05:19:31.925Z,75.22
2022-08-22T05:20:28.604Z,75.22
2022-08-22T05:21:28.588Z,75.38
2022-08-22T05:22:28.588Z,75.18
2022-08-22T05:23:28.576Z,74.15
2022-08-22T05:24:28.550Z,73.64
2022-08-22T05:25:28.538Z,73.44
2022-08-22T05:26:28.534Z,73.94
2022-08-22T05:27:28.529Z,74.08
2022-08-22T05:28:28.530Z,73.94
2022-08-22T05:29:28.500Z,74.38
2022-08-22T05:30:28.493Z,74.78
2022-08-22T05:31:28.481Z,74.88
2022-08-22T05:32:28.471Z,74.68
2022-08-22T05:33:28.503Z,74.48
2022-08-22T05:34:28.468Z,74.08
2022-08-22T05:35:28.444Z,74.18
2022-08-22T05:36:28.446Z,74.58
2022-08-22T05:37:28.452Z,73.84
2022-08-22T05:38:28.415Z,73.94
2022-08-22T05:39:28.423Z,73.64
2022-08-22T05:40:28.393Z,73.50
2022-08-22T05:41:28.381Z,73.41
2022-08-22T05:42:28.401Z,72.37
2022-08-22T05:43:28.358Z,72.06
2022-08-22T05:44:28.395Z,72.13
2022-08-22T05:45:28.337Z,70.83
2022-08-22T05:46:28.328Z,70.83
2022-08-22T05:47:28.314Z,70.93
2022-08-22T05:48:28.316Z,70.50
2022-08-22T05:49:28.305Z,69.89
2022-08-22T05:50:28.284Z,69.79
2022-08-22T05:51:28.277Z,70.66
2022-08-22T05:52:28.268Z,69.42
2022-08-22T05:53:28.252Z,68.59
2022-08-22T05:54:33.804Z,67.89
2022-08-22T05:55:29.229Z,67.99
2022-08-22T05:56:28.228Z,67.46
2022-08-22T05:57:28.210Z,68.46
2022-08-22T05:58:28.230Z,67.22
2022-08-22T05:59:28.209Z,67.63
2022-08-22T06:00:28.192Z,66.99
2022-08-22T06:01:28.303Z,66.96
2022-08-22T06:02:28.161Z,65.63
2022-08-22T06:03:28.152Z,65.03
2022-08-22T06:04:28.171Z,66.89
2022-08-22T06:05:28.150Z,64.50
2022-08-22T06:06:28.214Z,64.40
2022-08-22T06:07:28.112Z,64.50
2022-08-22T06:08:28.109Z,63.87
2022-08-22T06:09:35.384Z,63.77
2022-08-22T06:10:29.125Z,63.14
2022-08-22T06:11:32.686Z,62.64
2022-08-22T06:12:29.070Z,63.14
2022-08-22T06:13:28.051Z,62.24
2022-08-22T06:14:28.043Z,62.64
2022-08-22T06:15:29.038Z,62.81
2022-08-22T06:16:28.040Z,62.21
2022-08-22T06:17:28.005Z,62.12
2022-08-22T06:18:27.995Z,61.58
2022-08-22T06:19:28.007Z,61.61
2022-08-22T06:20:28.656Z,61.58
2022-08-22T06:21:29.151Z,60.36
2022-08-22T06:22:27.966Z,60.36
2022-08-22T06:23:27.972Z,60.43
2022-08-22T06:24:28.815Z,59.31
2022-08-22T06:25:29.425Z,60.27
2022-08-22T06:26:27.943Z,58.06
2022-08-22T06:27:31.123Z,58.16
2022-08-22T06:28:27.918Z,58.26
2022-08-22T06:29:27.919Z,58.56
2022-08-22T06:30:27.994Z,58.58
2022-08-22T06:31:28.032Z,58.98
2022-08-22T06:32:44.514Z,58.48
2022-08-22T06:33:29.072Z,59.11
2022-08-22T06:34:28.239Z,60.56
2022-08-22T06:35:28.078Z,62.78
2022-08-22T06:36:28.283Z,61.39
2022-08-22T06:37:28.485Z,62.12
2022-08-22T06:38:28.453Z,63.07
2022-08-22T06:39:27.954Z,63.54
2022-08-22T06:40:28.028Z,63.24
2022-08-22T06:41:28.154Z,63.24
2022-08-22T06:42:27.977Z,64.10
2022-08-22T06:43:27.847Z,65.73
2022-08-22T06:44:28.243Z,66.79
2022-08-22T06:45:28.906Z,67.09
2022-08-22T06:46:27.923Z,67.49
2022-08-22T06:47:28.004Z,67.36
2022-08-22T06:48:27.849Z,67.63
2022-08-22T06:49:27.812Z,66.53
2022-08-22T06:50:27.711Z,65.63
2022-08-22T06:51:28.549Z,65.23
2022-08-22T06:52:27.998Z,65.73
2022-08-22T06:53:28.017Z,65.93
2022-08-22T06:54:31.395Z,66.23
2022-08-22T06:55:28.868Z,66.03
2022-08-22T06:56:27.918Z,67.72
2022-08-22T06:57:27.823Z,65.33
2022-08-22T06:58:30.996Z,65.50
2022-08-22T06:59:28.901Z,65.00
2022-08-22T07:00:27.792Z,66.27
2022-08-22T07:01:27.732Z,64.37
2022-08-22T07:02:27.940Z,63.77
2022-08-22T07:03:27.821Z,63.90
2022-08-22T07:04:27.779Z,63.70
2022-08-22T07:05:27.861Z,64.60
2022-08-22T07:06:28.082Z,64.90
2022-08-22T07:07:28.050Z,63.20
2022-08-22T07:08:27.684Z,63.90
2022-08-22T07:09:28.146Z,65.30
2022-08-22T07:10:27.765Z,64.47
2022-08-22T07:11:27.905Z,65.77
2022-08-22T07:12:28.233Z,62.87
2022-08-22T07:13:27.534Z,62.84
2022-08-22T07:14:27.906Z,63.34
2022-08-22T07:15:27.634Z,63.44
2022-08-22T07:16:27.833Z,63.04
2022-08-22T07:17:27.758Z,63.24
2022-08-22T07:18:27.808Z,63.14
2022-08-22T07:19:27.536Z,62.04
2022-08-22T07:20:27.685Z,62.15
2022-08-22T07:21:27.940Z,63.71
2022-08-22T07:22:27.585Z,60.82
2022-08-22T07:23:27.854Z,62.01
2022-08-22T07:24:28.097Z,61.02
2022-08-22T07:25:27.659Z,60.52
2022-08-22T07:26:27.779Z,62.61
2022-08-22T07:27:27.604Z,60.39
2022-08-22T07:28:36.633Z,60.02
2022-08-22T07:29:28.454Z,60.52
2022-08-22T07:30:28.606Z,60.22
2022-08-22T07:31:27.472Z,60.72
2022-08-22T07:32:27.900Z,59.72
2022-08-22T07:33:27.560Z,60.05
2022-08-22T07:34:28.232Z,59.65
2022-08-22T07:35:27.941Z,59.75
2022-08-22T07:36:31.412Z,59.35
2022-08-22T07:37:28.338Z,58.95
2022-08-22T07:38:27.837Z,60.42
2022-08-22T07:39:27.538Z,59.12
2022-08-22T07:40:27.587Z,58.45
2022-08-22T07:41:27.764Z,60.02
2022-08-22T07:42:30.289Z,58.92
2022-08-22T07:43:27.242Z,58.53
2022-08-22T07:44:27.813Z,57.76
2022-08-22T07:45:27.443Z,58.25
2022-08-22T07:46:28.045Z,58.25
2022-08-22T07:47:27.221Z,57.65
2022-08-22T07:48:27.122Z,56.96
2022-08-22T07:49:27.207Z,57.35
2022-08-22T07:50:27.256Z,57.65
2022-08-22T07:51:27.368Z,57.46
2022-08-22T07:52:27.092Z,57.86
2022-08-22T07:53:27.268Z,57.95
2022-08-22T07:54:27.439Z,58.25
2022-08-22T07:55:27.567Z,58.06
2022-08-22T07:56:27.074Z,57.65
2022-08-22T07:57:27.104Z,57.82
2022-08-22T07:58:26.992Z,57.33
2022-08-22T07:59:26.973Z,57.43
2022-08-22T08:00:26.991Z,56.83
2022-08-22T08:01:27.103Z,57.00
2022-08-22T08:02:27.073Z,56.81
2022-08-22T08:03:27.068Z,56.81
2022-08-22T08:04:26.978Z,57.30
2022-08-22T08:05:26.945Z,56.70
2022-08-22T08:06:26.909Z,57.23
2022-08-22T08:07:26.913Z,56.90
2022-08-22T08:08:26.878Z,57.00
2022-08-22T08:09:26.894Z,55.98
2022-08-22T08:10:26.898Z,55.88
2022-08-22T08:11:26.865Z,56.77
2022-08-22T08:12:26.852Z,56.77
2022-08-22T08:13:26.837Z,56.77
2022-08-22T08:14:26.828Z,56.57
2022-08-22T08:15:26.841Z,57.00
2022-08-22T08:16:26.817Z,56.51
2022-08-22T08:17:31.393Z,57.13
2022-08-22T08:18:27.793Z,57.53
2022-08-22T08:19:26.777Z,57.43
2022-08-22T08:20:26.796Z,57.63
2022-08-22T08:21:26.764Z,58.50
2022-08-22T08:22:26.744Z,57.40
2022-08-22T08:23:26.747Z,57.10
2022-08-22T08:24:26.778Z,57.23
2022-08-22T08:25:26.742Z,56.73
2022-08-22T08:26:26.727Z,56.63
2022-08-22T08:27:26.682Z,57.23
2022-08-22T08:28:26.684Z,57.23
2022-08-22T08:29:26.686Z,56.60
2022-08-22T08:30:26.715Z,56.81
2022-08-22T08:31:26.782Z,56.51
2022-08-22T08:32:26.660Z,56.60
2022-08-22T08:33:26.989Z,56.53
2022-08-22T08:34:26.636Z,56.63
2022-08-22T08:35:26.641Z,56.53
2022-08-22T08:36:26.735Z,57.13
2022-08-22T08:37:26.606Z,57.03
2022-08-22T08:38:26.587Z,56.93
2022-08-22T08:39:28.603Z,56.43
2022-08-22T08:40:27.582Z,57.20
2022-08-22T08:41:26.562Z,55.80
2022-08-22T08:42:26.574Z,56.21
2022-08-22T08:43:26.519Z,55.61
2022-08-22T08:44:26.556Z,56.81
2022-08-22T08:45:26.545Z,56.10
2022-08-22T08:46:26.523Z,55.80
2022-08-22T08:47:26.496Z,55.88
2022-08-22T08:48:26.548Z,55.88
2022-08-22T08:49:26.488Z,55.28
2022-08-22T08:50:26.477Z,55.18
2022-08-22T08:51:26.455Z,55.21
2022-08-22T08:52:26.463Z,55.31
2022-08-22T08:53:26.429Z,55.51
2022-08-22T08:54:26.455Z,55.61
2022-08-22T08:55:26.391Z,56.01
2022-08-22T08:56:26.434Z,55.91
2022-08-22T08:57:26.434Z,56.10
2022-08-22T08:58:26.381Z,55.80
2022-08-22T08:59:26.418Z,55.68
2022-08-22T09:00:29.074Z,55.48
2022-08-22T09:01:27.785Z,55.48
2022-08-22T09:02:26.355Z,56.08
2022-08-22T09:04:27.468Z,55.38
2022-08-22T09:05:26.328Z,55.58
2022-08-22T09:06:26.288Z,55.78
2022-08-22T09:07:26.319Z,55.28
2022-08-22T09:08:27.660Z,55.48
2022-08-22T09:09:26.275Z,55.18
2022-08-22T09:10:27.372Z,55.35
2022-08-22T09:11:28.652Z,55.26
2022-08-22T09:12:26.280Z,54.73
2022-08-22T09:13:26.246Z,54.83
2022-08-22T09:14:26.964Z,54.11
2022-08-22T09:15:26.214Z,53.24
2022-08-22T09:16:26.202Z,53.94
2022-08-22T09:17:26.183Z,54.26
2022-08-22T09:18:26.978Z,53.56
2022-08-22T09:19:26.190Z,53.36
2022-08-22T09:20:26.165Z,53.34
2022-08-22T09:21:30.697Z,53.74
2022-08-22T09:22:27.173Z,53.76
2022-08-22T09:23:26.126Z,53.76
2022-08-22T09:24:26.102Z,53.86
2022-08-22T09:25:36.791Z,53.74
2022-08-22T09:26:27.110Z,53.14
2022-08-22T09:27:26.076Z,53.14
2022-08-22T09:28:28.217Z,53.56
2022-08-22T09:29:28.974Z,54.36
2022-08-22T09:30:28.872Z,54.96
2022-08-22T09:31:47.423Z,54.88
2022-08-22T09:32:27.044Z,54.86
2022-08-22T09:33:28.274Z,54.73
2022-08-22T09:34:26.008Z,54.80
2022-08-22T09:35:26.030Z,54.31
2022-08-22T09:36:25.986Z,53.04
2022-08-22T09:37:25.982Z,53.24
2022-08-22T09:38:25.997Z,53.74
2022-08-22T09:39:25.987Z,52.94
2022-08-22T09:41:25.933Z,53.24
2022-08-22T09:42:25.942Z,53.61
2022-08-22T09:43:25.946Z,53.71
2022-08-22T09:44:25.952Z,53.61
2022-08-22T09:45:25.912Z,53.81
2022-08-22T09:46:29.555Z,53.24
2022-08-22T09:47:26.922Z,53.53
2022-08-22T09:48:26.619Z,53.64
2022-08-22T09:49:25.861Z,53.21
2022-08-22T09:50:25.874Z,53.24
2022-08-22T09:51:32.504Z,53.14
2022-08-22T09:52:34.251Z,53.53
2022-08-22T09:53:26.839Z,53.74
2022-08-22T09:54:31.703Z,53.02
2022-08-22T09:55:35.201Z,52.94
2022-08-22T09:56:26.832Z,53.41
2022-08-22T09:57:25.786Z,52.62
2022-08-22T09:58:25.781Z,52.32
2022-08-22T09:59:26.476Z,52.81
2022-08-22T10:00:25.874Z,52.89
2022-08-22T10:01:25.813Z,52.81
2022-08-22T10:02:26.727Z,53.02
2022-08-22T10:03:25.782Z,53.14
2022-08-22T10:04:25.782Z,53.53
2022-08-22T10:05:40.614Z,53.11
2022-08-22T10:06:26.695Z,52.39
2022-08-22T10:07:25.679Z,51.70
2022-08-22T10:08:26.113Z,51.72
2022-08-22T10:09:31.996Z,52.79
2022-08-22T10:10:26.662Z,52.09
2022-08-22T10:11:25.640Z,52.09
2022-08-22T10:12:25.631Z,52.42
2022-08-22T10:13:25.632Z,52.49
2022-08-22T10:14:25.619Z,51.30
2022-08-22T10:15:25.641Z,51.89
2022-08-22T10:16:25.601Z,51.20
2022-08-22T10:17:25.587Z,51.97
2022-08-22T10:18:26.095Z,51.57
2022-08-22T10:19:26.179Z,51.37
2022-08-22T10:20:25.556Z,51.77
2022-08-22T10:21:25.557Z,51.28
2022-08-22T10:22:30.264Z,51.57
2022-08-22T10:23:26.537Z,50.40
2022-08-22T10:24:25.990Z,50.80
2022-08-22T10:25:25.513Z,50.58
2022-08-22T10:26:26.068Z,49.46
2022-08-22T10:27:25.471Z,49.76
2022-08-22T10:28:28.452Z,49.46
2022-08-22T10:29:25.460Z,50.16
2022-08-22T10:30:25.549Z,51.23
2022-08-22T10:31:26.236Z,49.74
2022-08-22T10:32:27.100Z,50.01
2022-08-22T10:33:25.459Z,48.82
2022-08-22T10:34:25.424Z,49.51
2022-08-22T10:35:25.603Z,48.22
2022-08-22T10:36:26.255Z,48.42
2022-08-22T10:37:25.381Z,48.62
2022-08-22T10:38:25.394Z,49.11
2022-08-22T10:39:25.371Z,49.21
2022-08-22T10:40:25.455Z,49.41
2022-08-22T10:41:25.319Z,49.14
2022-08-22T10:42:25.323Z,49.71
2022-08-22T10:43:28.574Z,49.61
2022-08-22T10:44:25.317Z,48.90
2022-08-22T10:45:35.997Z,48.10
2022-08-22T10:46:26.295Z,48.57
2022-08-22T10:47:25.309Z,48.38
2022-08-22T10:48:25.266Z,47.86
2022-08-22T10:49:28.360Z,47.98
2022-08-22T10:50:25.329Z,48.13
2022-08-22T10:51:26.236Z,49.24
2022-08-22T10:52:25.230Z,50.63
2022-08-22T10:53:28.404Z,49.07
2022-08-22T10:54:25.232Z,49.54
2022-08-22T10:55:25.224Z,51.23
2022-08-22T10:56:27.402Z,49.46
2022-08-22T10:57:25.355Z,49.78
2022-08-22T10:58:25.250Z,49.29
2022-08-22T10:59:25.422Z,49.29
2022-08-22T11:00:25.669Z,49.29
2022-08-22T11:01:41.803Z,47.89
2022-08-22T11:02:26.114Z,48.71
2022-08-22T11:03:25.185Z,50.90
2022-08-22T11:04:28.333Z,51.57
2022-08-22T11:05:25.094Z,50.38
2022-08-22T11:06:25.078Z,50.35
2022-08-22T11:07:25.067Z,50.65
2022-08-22T11:08:25.447Z,50.35
2022-08-22T11:09:25.252Z,49.76
2022-08-22T11:10:25.066Z,49.46
2022-08-22T11:11:25.044Z,49.07
2022-08-22T11:12:26.685Z,49.16
2022-08-22T11:13:25.998Z,49.34
2022-08-22T11:14:25.104Z,49.44
2022-08-22T11:15:34.899Z,50.05
2022-08-22T11:16:25.998Z,49.76
2022-08-22T11:17:31.754Z,49.98
2022-08-22T11:18:25.949Z,50.26
2022-08-22T11:19:25.030Z,50.68
2022-08-22T11:20:25.186Z,50.75
2022-08-22T11:21:24.969Z,50.65
2022-08-22T11:22:25.044Z,50.23
2022-08-22T11:23:24.941Z,49.74
2022-08-22T11:24:35.457Z,50.26
2022-08-22T11:25:35.705Z,49.98
2022-08-22T11:26:33.711Z,50.80
2022-08-22T11:27:38.418Z,51.00
2022-08-22T11:28:25.883Z,51.40
2022-08-22T11:29:24.853Z,50.90
2022-08-22T11:30:25.968Z,51.20
2022-08-22T11:31:24.860Z,51.50
2022-08-22T11:32:24.846Z,52.09
2022-08-22T11:33:32.541Z,51.10
2022-08-22T11:34:25.851Z,50.60
2022-08-22T11:35:24.838Z,50.48
2022-08-22T11:36:26.136Z,50.26
2022-08-22T11:37:42.898Z,50.45
2022-08-22T11:38:32.600Z,49.36
2022-08-22T11:39:26.734Z,50.05
2022-08-22T11:40:24.867Z,49.96
2022-08-22T11:41:24.817Z,49.98
2022-08-22T11:42:24.875Z,49.88
2022-08-22T11:43:25.468Z,49.58
2022-08-22T11:44:26.107Z,49.88
2022-08-22T11:45:25.378Z,49.98
2022-08-22T11:46:25.601Z,50.16
2022-08-22T11:47:27.251Z,50.26
2022-08-22T11:48:25.021Z,50.38
2022-08-22T11:49:26.883Z,50.48
2022-08-22T11:50:24.652Z,50.68
2022-08-22T11:51:25.101Z,51.37
2022-08-22T11:52:24.627Z,50.65
2022-08-22T11:53:24.634Z,51.12
2022-08-22T11:54:30.944Z,50.05
2022-08-22T11:55:32.545Z,50.56
2022-08-22T11:56:25.583Z,51.05
2022-08-22T11:57:24.584Z,50.43
2022-08-22T11:58:25.286Z,50.33
2022-08-22T11:59:24.568Z,50.31
2022-08-22T12:00:24.578Z,49.71
2022-08-22T12:01:24.547Z,49.81
2022-08-22T12:02:24.562Z,50.40
2022-08-22T12:03:24.557Z,50.13
2022-08-22T12:04:24.497Z,50.43
2022-08-22T12:05:26.565Z,50.95
2022-08-22T12:06:24.577Z,50.53
2022-08-22T12:07:24.552Z,50.13
2022-08-22T12:08:24.693Z,50.53
2022-08-22T12:09:24.500Z,50.93
2022-08-22T12:10:24.457Z,50.45
2022-08-22T12:11:24.438Z,50.35
2022-08-22T12:12:24.428Z,50.65
2022-08-22T12:13:34.907Z,51.17
2022-08-22T12:14:27.060Z,51.28
2022-08-22T12:15:24.608Z,49.78
2022-08-22T12:16:24.383Z,50.18
2022-08-22T12:17:50.592Z,50.28
2022-08-22T12:18:25.355Z,49.36
2022-08-22T12:19:24.386Z,48.94
2022-08-22T12:20:24.328Z,48.32
2022-08-22T12:21:24.389Z,48.32
2022-08-22T12:22:24.318Z,47.92
2022-08-22T12:23:24.395Z,47.63
2022-08-22T12:24:25.298Z,47.43
2022-08-22T12:25:24.457Z,47.50
2022-08-22T12:26:24.396Z,47.21
2022-08-22T12:27:28.715Z,46.61
2022-08-22T12:28:24.377Z,47.61
2022-08-22T12:29:27.571Z,47.21
2022-08-22T12:30:25.297Z,47.13
2022-08-22T12:31:24.224Z,47.73
2022-08-22T12:32:27.876Z,48.13
2022-08-22T12:33:24.226Z,47.63
2022-08-22T12:34:24.206Z,47.43
2022-08-22T12:35:30.142Z,48.62
2022-08-22T12:36:25.217Z,48.13
2022-08-22T12:37:24.175Z,48.22
2022-08-22T12:38:28.777Z,48.22
2022-08-22T12:39:25.154Z,47.92
2022-08-22T12:40:26.154Z,48.02
2022-08-22T12:41:28.192Z,47.71
2022-08-22T12:42:25.139Z,47.31
2022-08-22T12:43:24.145Z,46.91
2022-08-22T12:44:24.114Z,46.49
2022-08-22T12:45:24.197Z,45.62
2022-08-22T12:46:24.123Z,45.84
2022-08-22T12:47:24.067Z,46.14